Bighorn, Montana
Current Conditions -  °F | °C
As of 12:53 PM on Sunday 23 Nov 2014 (Local Time) from KBIL Reporting Station
Scattered Clouds Scattered Clouds  
Wind Chill:   Ceiling: Unl
Heat Index:   Visibility: 10mi
Dew Point: -11°   Wind: 31mph
Humidity: 31%   Direction: 290°WNW
Pressure: 29.88"   Gusts: 38mph
Location:  46.16°N, 107.45°W
Report Text: KBIL 231953Z 29027G33KT 10SM FEW060 SCT080 06/M11 A2988 RMK AO2 PK WND 29033/1952 SLP135 VIRGA T00561106 $
Loading
Personal Weather Stations






























Interactive Weather Map New forecast layout! Learn more

10-Day Weather Forecast

Advertisements
Track Severe Weather on mobile